UAAH/BXH METAR and TAF weather

Enter ICAO airport designator
Station Type Date Time Source
UAAH METAR 2022/06/26 08:30 UTC NOAA

UAAH 260830Z 20008MPS 180V240 9999 FEW040CB 37/09 Q1003 NOSIG RMK QFE714/0953


Station Type Date Time Source
UAAH Decoded METAR 2022/06/26 08:30 UTC NOAA

Station name not available
Jun 26, 2022 - 04:30 AM EDT / 2022.06.26 0830 UTC
Wind: from the SSW (200 degrees) at 18 MPH (16 KT) (direction variable):0
Visibility: greater than 7 mile(s):0
Sky conditions: mostly clear
Weather: Cumulonimbus clouds observed
Temperature: 98 F (37 C)
Heat index: 94.5 F (34.7 C):1
Dew Point: 48 F (9 C)
Relative Humidity: 18%
Pressure (altimeter): 29.62 in. Hg (1003 hPa)
ob: UAAH 260830Z 20008MPS 180V240 9999 FEW040CB 37/09 Q1003 NOSIG RMK QFE714/0953
cycle: 8

Station Type Date Time Source
UAAH TAF 2021/05/11 09:06 UTC NOAA

TAF
AMD TAF
AMD UAAH 111100Z 1109/1218 CNL

Example: see airport list